sensor_id;sensor_type;location;lat;lon;timestamp;P1;durP1;ratioP1;P2;durP2;ratioP2
27199;SDS011;14714;48.106;11.546;2022-08-11T00:01:12;6.32;;;3.10;;
27199;SDS011;14714;48.106;11.546;2022-08-11T00:03:46;4.70;;;2.65;;
27199;SDS011;14714;48.106;11.546;2022-08-11T00:06:22;5.43;;;3.10;;
27199;SDS011;14714;48.106;11.546;2022-08-11T00:08:51;6.97;;;3.28;;
27199;SDS011;14714;48.106;11.546;2022-08-11T00:11:20;3.88;;;3.10;;
27199;SDS011;14714;48.106;11.546;2022-08-11T00:13:56;5.50;;;2.83;;
27199;SDS011;14714;48.106;11.546;2022-08-11T00:16:25;4.82;;;3.13;;
27199;SDS011;14714;48.106;11.546;2022-08-11T00:18:53;3.50;;;2.88;;
27199;SDS011;14714;48.106;11.546;2022-08-11T00:21:23;3.22;;;2.70;;
27199;SDS011;14714;48.106;11.546;2022-08-11T00:24:11;4.75;;;3.30;;
27199;SDS011;14714;48.106;11.546;2022-08-11T00:26:39;5.25;;;3.40;;
27199;SDS011;14714;48.106;11.546;2022-08-11T00:29:09;3.67;;;2.85;;
27199;SDS011;14714;48.106;11.546;2022-08-11T00:31:37;4.63;;;3.00;;
27199;SDS011;14714;48.106;11.546;2022-08-11T00:34:50;7.57;;;3.30;;
27199;SDS011;14714;48.106;11.546;2022-08-11T00:37:11;3.20;;;2.90;;
27199;SDS011;14714;48.106;11.546;2022-08-11T00:39:45;6.13;;;3.20;;
27199;SDS011;14714;48.106;11.546;2022-08-11T00:45:02;5.72;;;3.10;;
27199;SDS011;14714;48.106;11.546;2022-08-11T01:02:07;4.00;;;2.90;;
27199;SDS011;14714;48.106;11.546;2022-08-11T01:09:47;3.42;;;2.88;;
27199;SDS011;14714;48.106;11.546;2022-08-11T01:12:31;3.35;;;3.05;;
27199;SDS011;14714;48.106;11.546;2022-08-11T01:29:54;4.28;;;3.00;;
27199;SDS011;14714;48.106;11.546;2022-08-11T01:46:26;3.80;;;3.22;;
27199;SDS011;14714;48.106;11.546;2022-08-11T01:52:38;4.57;;;3.30;;
27199;SDS011;14714;48.106;11.546;2022-08-11T01:55:24;4.18;;;3.30;;
27199;SDS011;14714;48.106;11.546;2022-08-11T02:01:25;5.32;;;3.55;;
27199;SDS011;14714;48.106;11.546;2022-08-11T02:07:11;6.20;;;3.30;;
27199;SDS011;14714;48.106;11.546;2022-08-11T02:09:48;4.43;;;3.17;;
27199;SDS011;14714;48.106;11.546;2022-08-11T02:15:25;6.95;;;3.40;;
27199;SDS011;14714;48.106;11.546;2022-08-11T02:18:05;4.00;;;3.60;;
27199;SDS011;14714;48.106;11.546;2022-08-11T02:20:44;5.85;;;3.80;;
27199;SDS011;14714;48.106;11.546;2022-08-11T02:23:49;5.57;;;3.95;;
27199;SDS011;14714;48.106;11.546;2022-08-11T02:29:12;4.47;;;3.60;;
27199;SDS011;14714;48.106;11.546;2022-08-11T02:31:53;4.68;;;3.70;;
27199;SDS011;14714;48.106;11.546;2022-08-11T02:34:58;5.15;;;3.72;;
27199;SDS011;14714;48.106;11.546;2022-08-11T02:45:53;5.05;;;3.88;;
27199;SDS011;14714;48.106;11.546;2022-08-11T02:49:04;4.30;;;3.40;;
27199;SDS011;14714;48.106;11.546;2022-08-11T02:52:13;5.18;;;3.67;;
27199;SDS011;14714;48.106;11.546;2022-08-11T03:01:22;4.88;;;3.70;;
27199;SDS011;14714;48.106;11.546;2022-08-11T03:04:06;5.97;;;3.95;;
27199;SDS011;14714;48.106;11.546;2022-08-11T03:06:49;4.35;;;3.80;;
27199;SDS011;14714;48.106;11.546;2022-08-11T03:09:43;6.05;;;3.80;;
27199;SDS011;14714;48.106;11.546;2022-08-11T03:12:16;5.00;;;3.72;;
27199;SDS011;14714;48.106;11.546;2022-08-11T03:15:18;6.03;;;3.83;;
27199;SDS011;14714;48.106;11.546;2022-08-11T03:18:22;4.50;;;3.92;;
27199;SDS011;14714;48.106;11.546;2022-08-11T03:20:58;4.10;;;3.63;;
27199;SDS011;14714;48.106;11.546;2022-08-11T03:26:00;4.10;;;3.70;;
27199;SDS011;14714;48.106;11.546;2022-08-11T03:39:44;4.80;;;3.92;;
27199;SDS011;14714;48.106;11.546;2022-08-11T04:11:42;4.50;;;4.10;;
27199;SDS011;14714;48.106;11.546;2022-08-11T04:21:34;4.82;;;4.20;;
27199;SDS011;14714;48.106;11.546;2022-08-11T04:30:16;5.25;;;4.32;;
27199;SDS011;14714;48.106;11.546;2022-08-11T05:15:19;5.97;;;4.35;;
27199;SDS011;14714;48.106;11.546;2022-08-11T05:18:28;6.00;;;4.15;;
27199;SDS011;14714;48.106;11.546;2022-08-11T05:21:15;5.60;;;3.45;;
27199;SDS011;14714;48.106;11.546;2022-08-11T05:24:21;5.65;;;3.83;;
27199;SDS011;14714;48.106;11.546;2022-08-11T05:27:10;4.13;;;3.17;;
27199;SDS011;14714;48.106;11.546;2022-08-11T05:30:02;5.55;;;3.10;;
27199;SDS011;14714;48.106;11.546;2022-08-11T05:33:06;6.38;;;3.50;;
27199;SDS011;14714;48.106;11.546;2022-08-11T05:36:07;7.88;;;3.22;;
27199;SDS011;14714;48.106;11.546;2022-08-11T05:38:48;4.50;;;3.45;;
27199;SDS011;14714;48.106;11.546;2022-08-11T05:41:40;4.80;;;3.72;;
27199;SDS011;14714;48.106;11.546;2022-08-11T05:44:26;4.32;;;3.10;;
27199;SDS011;14714;48.106;11.546;2022-08-11T05:47:21;4.13;;;3.00;;
27199;SDS011;14714;48.106;11.546;2022-08-11T05:50:13;6.95;;;3.17;;
27199;SDS011;14714;48.106;11.546;2022-08-11T05:53:03;6.80;;;3.30;;
27199;SDS011;14714;48.106;11.546;2022-08-11T05:56:05;8.57;;;2.80;;
27199;SDS011;14714;48.106;11.546;2022-08-11T05:58:45;8.68;;;3.65;;
27199;SDS011;14714;48.106;11.546;2022-08-11T06:01:34;5.63;;;3.22;;
27199;SDS011;14714;48.106;11.546;2022-08-11T06:04:04;3.83;;;3.38;;
27199;SDS011;14714;48.106;11.546;2022-08-11T06:07:00;7.38;;;3.05;;
27199;SDS011;14714;48.106;11.546;2022-08-11T06:09:36;9.18;;;3.58;;
27199;SDS011;14714;48.106;11.546;2022-08-11T06:12:06;5.50;;;3.10;;
27199;SDS011;14714;48.106;11.546;2022-08-11T06:14:42;5.63;;;3.13;;
27199;SDS011;14714;48.106;11.546;2022-08-11T06:17:11;8.10;;;3.08;;
27199;SDS011;14714;48.106;11.546;2022-08-11T06:19:42;7.60;;;3.15;;
27199;SDS011;14714;48.106;11.546;2022-08-11T06:22:18;7.28;;;3.40;;
27199;SDS011;14714;48.106;11.546;2022-08-11T06:24:56;11.10;;;3.45;;
27199;SDS011;14714;48.106;11.546;2022-08-11T06:27:25;8.00;;;3.35;;
27199;SDS011;14714;48.106;11.546;2022-08-11T06:29:54;4.72;;;3.20;;
27199;SDS011;14714;48.106;11.546;2022-08-11T06:32:26;9.52;;;3.40;;
27199;SDS011;14714;48.106;11.546;2022-08-11T06:40:27;6.85;;;3.70;;
27199;SDS011;14714;48.106;11.546;2022-08-11T06:43:17;6.85;;;3.95;;
27199;SDS011;14714;48.106;11.546;2022-08-11T06:45:59;6.95;;;3.55;;
27199;SDS011;14714;48.106;11.546;2022-08-11T06:48:29;6.35;;;3.40;;
27199;SDS011;14714;48.106;11.546;2022-08-11T06:51:02;7.53;;;3.45;;
27199;SDS011;14714;48.106;11.546;2022-08-11T06:53:45;5.63;;;3.27;;
27199;SDS011;14714;48.106;11.546;2022-08-11T06:56:29;6.65;;;3.50;;
27199;SDS011;14714;48.106;11.546;2022-08-11T06:59:38;8.23;;;3.45;;
27199;SDS011;14714;48.106;11.546;2022-08-11T07:02:26;7.80;;;3.20;;
27199;SDS011;14714;48.106;11.546;2022-08-11T07:05:04;8.75;;;3.25;;
27199;SDS011;14714;48.106;11.546;2022-08-11T07:07:46;5.10;;;3.00;;
27199;SDS011;14714;48.106;11.546;2022-08-11T07:13:58;4.40;;;3.13;;
27199;SDS011;14714;48.106;11.546;2022-08-11T07:16:46;5.40;;;3.08;;
27199;SDS011;14714;48.106;11.546;2022-08-11T07:19:19;5.28;;;2.97;;
27199;SDS011;14714;48.106;11.546;2022-08-11T07:22:09;6.00;;;3.17;;
27199;SDS011;14714;48.106;11.546;2022-08-11T07:25:14;5.53;;;3.10;;
27199;SDS011;14714;48.106;11.546;2022-08-11T07:28:10;5.03;;;2.88;;
27199;SDS011;14714;48.106;11.546;2022-08-11T07:31:09;9.32;;;3.10;;
27199;SDS011;14714;48.106;11.546;2022-08-11T07:36:39;5.10;;;3.15;;
27199;SDS011;14714;48.106;11.546;2022-08-11T07:39:15;4.93;;;3.20;;
27199;SDS011;14714;48.106;11.546;2022-08-11T07:41:46;8.13;;;2.97;;
27199;SDS011;14714;48.106;11.546;2022-08-11T07:44:15;7.43;;;2.72;;
27199;SDS011;14714;48.106;11.546;2022-08-11T07:46:49;4.60;;;2.65;;
27199;SDS011;14714;48.106;11.546;2022-08-11T07:49:38;3.90;;;2.67;;
27199;SDS011;14714;48.106;11.546;2022-08-11T07:52:27;5.07;;;2.70;;
27199;SDS011;14714;48.106;11.546;2022-08-11T07:54:57;4.97;;;2.80;;
27199;SDS011;14714;48.106;11.546;2022-08-11T08:00:38;6.75;;;2.90;;
27199;SDS011;14714;48.106;11.546;2022-08-11T08:03:28;9.20;;;3.20;;
27199;SDS011;14714;48.106;11.546;2022-08-11T08:06:20;4.65;;;2.70;;
27199;SDS011;14714;48.106;11.546;2022-08-11T08:09:06;8.48;;;3.40;;
27199;SDS011;14714;48.106;11.546;2022-08-11T08:11:53;4.22;;;2.85;;
27199;SDS011;14714;48.106;11.546;2022-08-11T08:14:39;4.55;;;2.90;;
27199;SDS011;14714;48.106;11.546;2022-08-11T08:17:26;5.30;;;3.30;;
27199;SDS011;14714;48.106;11.546;2022-08-11T08:20:53;6.75;;;3.22;;
27199;SDS011;14714;48.106;11.546;2022-08-11T08:23:25;4.03;;;2.85;;
27199;SDS011;14714;48.106;11.546;2022-08-11T08:26:00;7.15;;;2.88;;
27199;SDS011;14714;48.106;11.546;2022-08-11T08:28:29;6.32;;;3.00;;
27199;SDS011;14714;48.106;11.546;2022-08-11T08:30:58;7.03;;;3.20;;
27199;SDS011;14714;48.106;11.546;2022-08-11T08:33:27;4.10;;;3.05;;
27199;SDS011;14714;48.106;11.546;2022-08-11T08:35:56;7.18;;;2.72;;
27199;SDS011;14714;48.106;11.546;2022-08-11T08:38:38;7.78;;;3.15;;
27199;SDS011;14714;48.106;11.546;2022-08-11T08:41:07;7.70;;;3.15;;
27199;SDS011;14714;48.106;11.546;2022-08-11T08:43:39;8.18;;;2.80;;
27199;SDS011;14714;48.106;11.546;2022-08-11T08:46:14;6.80;;;3.15;;
27199;SDS011;14714;48.106;11.546;2022-08-11T08:48:46;4.47;;;2.75;;
27199;SDS011;14714;48.106;11.546;2022-08-11T08:51:17;5.75;;;2.88;;
27199;SDS011;14714;48.106;11.546;2022-08-11T08:54:21;4.88;;;2.92;;
27199;SDS011;14714;48.106;11.546;2022-08-11T08:56:54;4.38;;;2.88;;
27199;SDS011;14714;48.106;11.546;2022-08-11T08:59:23;4.93;;;2.92;;
27199;SDS011;14714;48.106;11.546;2022-08-11T09:02:12;6.57;;;2.80;;
27199;SDS011;14714;48.106;11.546;2022-08-11T09:04:39;6.20;;;2.88;;
27199;SDS011;14714;48.106;11.546;2022-08-11T09:07:09;8.52;;;3.00;;
27199;SDS011;14714;48.106;11.546;2022-08-11T09:09:52;4.63;;;2.92;;
27199;SDS011;14714;48.106;11.546;2022-08-11T09:12:25;5.25;;;2.92;;
27199;SDS011;14714;48.106;11.546;2022-08-11T09:15:11;3.63;;;2.80;;
27199;SDS011;14714;48.106;11.546;2022-08-11T09:17:45;4.18;;;2.70;;
27199;SDS011;14714;48.106;11.546;2022-08-11T09:20:19;5.57;;;2.72;;
27199;SDS011;14714;48.106;11.546;2022-08-11T09:22:49;5.63;;;2.78;;
27199;SDS011;14714;48.106;11.546;2022-08-11T09:25:59;5.78;;;3.03;;
27199;SDS011;14714;48.106;11.546;2022-08-11T09:28:45;5.68;;;2.92;;
27199;SDS011;14714;48.106;11.546;2022-08-11T09:31:13;7.60;;;3.00;;
27199;SDS011;14714;48.106;11.546;2022-08-11T09:33:40;6.43;;;3.15;;
27199;SDS011;14714;48.106;11.546;2022-08-11T09:36:11;5.97;;;3.22;;
27199;SDS011;14714;48.106;11.546;2022-08-11T09:39:11;5.40;;;3.28;;
27199;SDS011;14714;48.106;11.546;2022-08-11T09:42:01;4.22;;;2.65;;
27199;SDS011;14714;48.106;11.546;2022-08-11T09:44:30;4.28;;;2.70;;
27199;SDS011;14714;48.106;11.546;2022-08-11T09:49:55;4.82;;;2.90;;
27199;SDS011;14714;48.106;11.546;2022-08-11T09:52:31;7.28;;;2.90;;
27199;SDS011;14714;48.106;11.546;2022-08-11T09:55:22;5.35;;;3.28;;
27199;SDS011;14714;48.106;11.546;2022-08-11T09:57:49;7.53;;;2.90;;
27199;SDS011;14714;48.106;11.546;2022-08-11T10:00:35;3.65;;;2.80;;
27199;SDS011;14714;48.106;11.546;2022-08-11T10:03:03;6.85;;;3.15;;
27199;SDS011;14714;48.106;11.546;2022-08-11T10:05:35;6.70;;;2.97;;
27199;SDS011;14714;48.106;11.546;2022-08-11T10:08:25;5.88;;;2.92;;
27199;SDS011;14714;48.106;11.546;2022-08-11T10:10:53;4.35;;;2.88;;
27199;SDS011;14714;48.106;11.546;2022-08-11T10:13:25;6.07;;;2.83;;
27199;SDS011;14714;48.106;11.546;2022-08-11T10:16:42;5.25;;;2.92;;
27199;SDS011;14714;48.106;11.546;2022-08-11T10:19:10;5.13;;;2.75;;
27199;SDS011;14714;48.106;11.546;2022-08-11T10:21:39;5.72;;;2.78;;
27199;SDS011;14714;48.106;11.546;2022-08-11T10:24:09;6.13;;;2.92;;
27199;SDS011;14714;48.106;11.546;2022-08-11T10:26:56;7.70;;;2.92;;
27199;SDS011;14714;48.106;11.546;2022-08-11T10:29:30;4.25;;;2.65;;
27199;SDS011;14714;48.106;11.546;2022-08-11T10:32:18;8.95;;;2.80;;
27199;SDS011;14714;48.106;11.546;2022-08-11T10:35:26;4.47;;;2.88;;
27199;SDS011;14714;48.106;11.546;2022-08-11T10:37:54;8.15;;;2.90;;
27199;SDS011;14714;48.106;11.546;2022-08-11T10:40:36;6.82;;;2.90;;
27199;SDS011;14714;48.106;11.546;2022-08-11T10:45:36;4.95;;;2.83;;
27199;SDS011;14714;48.106;11.546;2022-08-11T10:48:24;5.03;;;3.05;;
27199;SDS011;14714;48.106;11.546;2022-08-11T10:50:53;3.38;;;2.50;;
27199;SDS011;14714;48.106;11.546;2022-08-11T10:53:41;5.53;;;2.83;;
27199;SDS011;14714;48.106;11.546;2022-08-11T10:56:38;12.13;;;3.03;;
27199;SDS011;14714;48.106;11.546;2022-08-11T10:59:25;6.53;;;2.92;;
27199;SDS011;14714;48.106;11.546;2022-08-11T11:01:55;6.60;;;2.88;;
27199;SDS011;14714;48.106;11.546;2022-08-11T11:07:23;6.50;;;3.53;;
27199;SDS011;14714;48.106;11.546;2022-08-11T11:10:06;7.00;;;3.00;;
27199;SDS011;14714;48.106;11.546;2022-08-11T11:12:38;6.35;;;2.95;;
27199;SDS011;14714;48.106;11.546;2022-08-11T11:15:28;6.03;;;3.17;;
27199;SDS011;14714;48.106;11.546;2022-08-11T11:18:20;8.20;;;2.90;;
27199;SDS011;14714;48.106;11.546;2022-08-11T11:21:08;7.95;;;3.45;;
27199;SDS011;14714;48.106;11.546;2022-08-11T11:29:19;6.68;;;3.50;;
27199;SDS011;14714;48.106;11.546;2022-08-11T11:37:44;4.90;;;2.70;;
27199;SDS011;14714;48.106;11.546;2022-08-11T11:40:30;7.05;;;2.88;;
27199;SDS011;14714;48.106;11.546;2022-08-11T11:42:58;6.45;;;2.95;;
27199;SDS011;14714;48.106;11.546;2022-08-11T11:45:26;6.10;;;2.58;;
27199;SDS011;14714;48.106;11.546;2022-08-11T11:47:54;3.75;;;2.63;;
27199;SDS011;14714;48.106;11.546;2022-08-11T11:50:25;6.22;;;2.78;;
27199;SDS011;14714;48.106;11.546;2022-08-11T11:52:58;6.70;;;2.70;;
27199;SDS011;14714;48.106;11.546;2022-08-11T11:55:27;5.28;;;2.70;;
27199;SDS011;14714;48.106;11.546;2022-08-11T11:57:55;2.97;;;2.53;;
27199;SDS011;14714;48.106;11.546;2022-08-11T12:00:44;8.20;;;3.00;;
27199;SDS011;14714;48.106;11.546;2022-08-11T12:03:32;6.75;;;2.88;;
27199;SDS011;14714;48.106;11.546;2022-08-11T12:06:00;4.38;;;2.75;;
27199;SDS011;14714;48.106;11.546;2022-08-11T12:08:29;5.72;;;2.60;;
27199;SDS011;14714;48.106;11.546;2022-08-11T12:10:58;12.45;;;2.65;;
27199;SDS011;14714;48.106;11.546;2022-08-11T12:13:49;7.90;;;2.70;;
27199;SDS011;14714;48.106;11.546;2022-08-11T12:19:00;4.22;;;2.78;;
27199;SDS011;14714;48.106;11.546;2022-08-11T12:21:29;4.20;;;2.50;;
27199;SDS011;14714;48.106;11.546;2022-08-11T12:23:57;3.80;;;2.40;;
27199;SDS011;14714;48.106;11.546;2022-08-11T12:26:45;7.53;;;2.92;;
27199;SDS011;14714;48.106;11.546;2022-08-11T12:29:43;5.63;;;2.83;;
27199;SDS011;14714;48.106;11.546;2022-08-11T12:32:19;5.43;;;2.80;;
27199;SDS011;14714;48.106;11.546;2022-08-11T12:34:49;6.65;;;3.17;;
27199;SDS011;14714;48.106;11.546;2022-08-11T12:37:19;3.58;;;2.70;;
27199;SDS011;14714;48.106;11.546;2022-08-11T12:39:50;6.75;;;2.60;;
27199;SDS011;14714;48.106;11.546;2022-08-11T12:43:02;2.80;;;2.58;;
27199;SDS011;14714;48.106;11.546;2022-08-11T12:46:08;3.00;;;2.70;;
27199;SDS011;14714;48.106;11.546;2022-08-11T12:48:50;8.13;;;2.50;;
27199;SDS011;14714;48.106;11.546;2022-08-11T12:51:43;6.90;;;2.55;;
27199;SDS011;14714;48.106;11.546;2022-08-11T13:00:22;5.75;;;2.40;;
27199;SDS011;14714;48.106;11.546;2022-08-11T13:03:09;3.10;;;2.55;;
27199;SDS011;14714;48.106;11.546;2022-08-11T13:06:00;4.10;;;2.80;;
27199;SDS011;14714;48.106;11.546;2022-08-11T13:08:30;5.00;;;2.40;;
27199;SDS011;14714;48.106;11.546;2022-08-11T13:11:00;4.72;;;2.50;;
27199;SDS011;14714;48.106;11.546;2022-08-11T13:13:47;5.38;;;2.50;;
27199;SDS011;14714;48.106;11.546;2022-08-11T13:16:22;6.80;;;2.78;;
27199;SDS011;14714;48.106;11.546;2022-08-11T13:18:51;3.78;;;2.50;;
27199;SDS011;14714;48.106;11.546;2022-08-11T13:21:19;9.88;;;2.53;;
27199;SDS011;14714;48.106;11.546;2022-08-11T13:23:48;4.40;;;2.35;;
27199;SDS011;14714;48.106;11.546;2022-08-11T13:26:34;6.78;;;2.80;;
27199;SDS011;14714;48.106;11.546;2022-08-11T13:29:19;6.55;;;2.60;;
27199;SDS011;14714;48.106;11.546;2022-08-11T13:31:47;4.32;;;2.20;;
27199;SDS011;14714;48.106;11.546;2022-08-11T13:34:15;4.97;;;2.35;;
27199;SDS011;14714;48.106;11.546;2022-08-11T13:36:45;9.43;;;2.80;;
27199;SDS011;14714;48.106;11.546;2022-08-11T13:39:18;5.35;;;2.50;;
27199;SDS011;14714;48.106;11.546;2022-08-11T13:41:49;5.40;;;2.60;;
27199;SDS011;14714;48.106;11.546;2022-08-11T13:44:17;3.42;;;2.58;;
27199;SDS011;14714;48.106;11.546;2022-08-11T13:46:51;2.72;;;2.40;;
27199;SDS011;14714;48.106;11.546;2022-08-11T13:49:21;8.27;;;2.40;;
27199;SDS011;14714;48.106;11.546;2022-08-11T13:51:49;6.18;;;2.55;;
27199;SDS011;14714;48.106;11.546;2022-08-11T13:54:18;6.63;;;2.40;;
27199;SDS011;14714;48.106;11.546;2022-08-11T13:56:49;5.45;;;2.45;;
27199;SDS011;14714;48.106;11.546;2022-08-11T13:59:19;4.68;;;2.28;;
27199;SDS011;14714;48.106;11.546;2022-08-11T14:02:03;6.55;;;2.55;;
27199;SDS011;14714;48.106;11.546;2022-08-11T14:05:14;2.47;;;2.03;;
27199;SDS011;14714;48.106;11.546;2022-08-11T14:07:45;3.47;;;2.30;;
27199;SDS011;14714;48.106;11.546;2022-08-11T14:10:18;5.57;;;2.58;;
27199;SDS011;14714;48.106;11.546;2022-08-11T14:16:25;4.60;;;2.35;;
27199;SDS011;14714;48.106;11.546;2022-08-11T14:18:59;6.00;;;2.40;;
27199;SDS011;14714;48.106;11.546;2022-08-11T14:21:31;6.28;;;2.45;;
27199;SDS011;14714;48.106;11.546;2022-08-11T14:24:20;6.78;;;2.40;;
27199;SDS011;14714;48.106;11.546;2022-08-11T14:26:48;7.60;;;2.58;;
27199;SDS011;14714;48.106;11.546;2022-08-11T14:29:16;4.35;;;2.47;;
27199;SDS011;14714;48.106;11.546;2022-08-11T14:31:47;4.07;;;2.42;;
27199;SDS011;14714;48.106;11.546;2022-08-11T14:34:20;4.13;;;2.63;;
27199;SDS011;14714;48.106;11.546;2022-08-11T14:36:50;8.47;;;2.30;;
27199;SDS011;14714;48.106;11.546;2022-08-11T14:39:20;4.13;;;2.15;;
27199;SDS011;14714;48.106;11.546;2022-08-11T14:41:58;4.55;;;2.40;;
27199;SDS011;14714;48.106;11.546;2022-08-11T14:44:46;3.45;;;2.42;;
27199;SDS011;14714;48.106;11.546;2022-08-11T14:47:34;6.38;;;2.55;;
27199;SDS011;14714;48.106;11.546;2022-08-11T14:50:02;9.10;;;2.47;;
27199;SDS011;14714;48.106;11.546;2022-08-11T14:52:37;3.33;;;2.42;;
27199;SDS011;14714;48.106;11.546;2022-08-11T14:55:20;3.10;;;2.50;;
27199;SDS011;14714;48.106;11.546;2022-08-11T14:58:08;3.97;;;2.50;;
27199;SDS011;14714;48.106;11.546;2022-08-11T15:00:36;5.60;;;2.40;;
27199;SDS011;14714;48.106;11.546;2022-08-11T15:03:04;2.85;;;2.30;;
27199;SDS011;14714;48.106;11.546;2022-08-11T15:08:11;5.70;;;2.22;;
27199;SDS011;14714;48.106;11.546;2022-08-11T15:10:39;3.50;;;2.30;;
27199;SDS011;14714;48.106;11.546;2022-08-11T15:13:06;4.50;;;2.45;;
27199;SDS011;14714;48.106;11.546;2022-08-11T15:15:35;3.33;;;2.20;;
27199;SDS011;14714;48.106;11.546;2022-08-11T15:18:25;3.65;;;2.40;;
27199;SDS011;14714;48.106;11.546;2022-08-11T15:20:52;5.95;;;2.60;;
27199;SDS011;14714;48.106;11.546;2022-08-11T15:23:39;5.82;;;2.20;;
27199;SDS011;14714;48.106;11.546;2022-08-11T15:26:30;5.90;;;2.38;;
27199;SDS011;14714;48.106;11.546;2022-08-11T15:29:19;4.30;;;2.50;;
27199;SDS011;14714;48.106;11.546;2022-08-11T15:32:08;3.33;;;2.30;;
27199;SDS011;14714;48.106;11.546;2022-08-11T15:34:58;3.85;;;2.47;;
27199;SDS011;14714;48.106;11.546;2022-08-11T15:37:46;3.88;;;2.10;;
27199;SDS011;14714;48.106;11.546;2022-08-11T15:40:19;2.83;;;2.30;;
27199;SDS011;14714;48.106;11.546;2022-08-11T15:43:10;6.65;;;2.67;;
27199;SDS011;14714;48.106;11.546;2022-08-11T15:46:09;3.90;;;2.20;;
27199;SDS011;14714;48.106;11.546;2022-08-11T15:48:55;3.55;;;2.50;;
27199;SDS011;14714;48.106;11.546;2022-08-11T15:51:33;6.53;;;2.38;;
27199;SDS011;14714;48.106;11.546;2022-08-11T15:54:04;4.80;;;2.50;;
27199;SDS011;14714;48.106;11.546;2022-08-11T15:56:47;4.38;;;2.55;;
27199;SDS011;14714;48.106;11.546;2022-08-11T15:59:16;5.13;;;2.50;;
27199;SDS011;14714;48.106;11.546;2022-08-11T16:02:09;5.88;;;3.00;;
27199;SDS011;14714;48.106;11.546;2022-08-11T16:04:58;5.47;;;2.97;;
27199;SDS011;14714;48.106;11.546;2022-08-11T16:07:31;3.65;;;2.42;;
27199;SDS011;14714;48.106;11.546;2022-08-11T16:10:06;5.32;;;2.60;;
27199;SDS011;14714;48.106;11.546;2022-08-11T16:12:56;3.72;;;2.60;;
27199;SDS011;14714;48.106;11.546;2022-08-11T16:15:34;5.43;;;2.53;;
27199;SDS011;14714;48.106;11.546;2022-08-11T16:21:24;5.50;;;2.60;;
27199;SDS011;14714;48.106;11.546;2022-08-11T16:24:05;4.25;;;2.20;;
27199;SDS011;14714;48.106;11.546;2022-08-11T16:26:54;7.35;;;2.50;;
27199;SDS011;14714;48.106;11.546;2022-08-11T16:29:37;3.47;;;2.17;;
27199;SDS011;14714;48.106;11.546;2022-08-11T16:32:10;4.13;;;2.20;;
27199;SDS011;14714;48.106;11.546;2022-08-11T16:34:43;2.60;;;2.10;;
27199;SDS011;14714;48.106;11.546;2022-08-11T16:37:30;4.07;;;2.30;;
27199;SDS011;14714;48.106;11.546;2022-08-11T16:40:18;3.88;;;2.10;;
27199;SDS011;14714;48.106;11.546;2022-08-11T16:42:48;2.65;;;2.30;;
27199;SDS011;14714;48.106;11.546;2022-08-11T16:45:38;5.90;;;2.55;;
27199;SDS011;14714;48.106;11.546;2022-08-11T16:48:26;7.57;;;2.60;;
27199;SDS011;14714;48.106;11.546;2022-08-11T16:51:06;6.45;;;2.30;;
27199;SDS011;14714;48.106;11.546;2022-08-11T16:53:35;2.35;;;2.10;;
27199;SDS011;14714;48.106;11.546;2022-08-11T16:56:35;7.35;;;2.30;;
27199;SDS011;14714;48.106;11.546;2022-08-11T16:59:07;4.65;;;2.40;;
27199;SDS011;14714;48.106;11.546;2022-08-11T17:02:05;5.75;;;2.40;;
27199;SDS011;14714;48.106;11.546;2022-08-11T17:07:25;3.28;;;2.50;;
27199;SDS011;14714;48.106;11.546;2022-08-11T17:10:18;4.75;;;2.40;;
27199;SDS011;14714;48.106;11.546;2022-08-11T17:13:30;3.13;;;2.45;;
27199;SDS011;14714;48.106;11.546;2022-08-11T17:16:06;4.95;;;2.60;;
27199;SDS011;14714;48.106;11.546;2022-08-11T17:18:41;5.55;;;2.40;;
27199;SDS011;14714;48.106;11.546;2022-08-11T17:23:56;5.40;;;2.78;;
27199;SDS011;14714;48.106;11.546;2022-08-11T17:26:43;4.55;;;2.38;;
27199;SDS011;14714;48.106;11.546;2022-08-11T17:32:40;6.72;;;2.60;;
27199;SDS011;14714;48.106;11.546;2022-08-11T17:38:16;4.85;;;2.60;;
27199;SDS011;14714;48.106;11.546;2022-08-11T17:40:48;4.32;;;2.30;;
27199;SDS011;14714;48.106;11.546;2022-08-11T17:43:49;4.38;;;2.15;;
27199;SDS011;14714;48.106;11.546;2022-08-11T17:46:36;4.70;;;2.50;;
27199;SDS011;14714;48.106;11.546;2022-08-11T17:49:28;5.03;;;2.50;;
27199;SDS011;14714;48.106;11.546;2022-08-11T17:52:03;2.80;;;2.10;;
27199;SDS011;14714;48.106;11.546;2022-08-11T17:54:49;2.85;;;2.30;;
27199;SDS011;14714;48.106;11.546;2022-08-11T17:57:38;3.33;;;2.08;;
27199;SDS011;14714;48.106;11.546;2022-08-11T18:00:25;2.20;;;2.00;;
27199;SDS011;14714;48.106;11.546;2022-08-11T18:02:53;4.03;;;2.38;;
27199;SDS011;14714;48.106;11.546;2022-08-11T18:05:40;5.25;;;2.08;;
27199;SDS011;14714;48.106;11.546;2022-08-11T18:08:10;3.53;;;2.20;;
27199;SDS011;14714;48.106;11.546;2022-08-11T18:10:57;2.85;;;2.10;;
27199;SDS011;14714;48.106;11.546;2022-08-11T18:14:05;3.08;;;2.40;;
27199;SDS011;14714;48.106;11.546;2022-08-11T18:16:52;5.20;;;2.13;;
27199;SDS011;14714;48.106;11.546;2022-08-11T18:19:38;8.85;;;2.70;;
27199;SDS011;14714;48.106;11.546;2022-08-11T18:22:24;8.02;;;2.38;;
27199;SDS011;14714;48.106;11.546;2022-08-11T18:25:19;2.45;;;2.00;;
27199;SDS011;14714;48.106;11.546;2022-08-11T18:28:11;2.63;;;2.15;;
27199;SDS011;14714;48.106;11.546;2022-08-11T18:30:59;4.97;;;2.17;;
27199;SDS011;14714;48.106;11.546;2022-08-11T18:33:50;5.68;;;2.10;;
27199;SDS011;14714;48.106;11.546;2022-08-11T18:36:59;4.72;;;2.22;;
27199;SDS011;14714;48.106;11.546;2022-08-11T18:39:55;3.95;;;2.30;;
27199;SDS011;14714;48.106;11.546;2022-08-11T18:42:44;4.90;;;2.38;;
27199;SDS011;14714;48.106;11.546;2022-08-11T18:45:31;2.75;;;2.10;;
27199;SDS011;14714;48.106;11.546;2022-08-11T18:48:32;4.38;;;2.13;;
27199;SDS011;14714;48.106;11.546;2022-08-11T18:51:21;3.28;;;2.28;;
27199;SDS011;14714;48.106;11.546;2022-08-11T18:54:09;3.22;;;2.17;;
27199;SDS011;14714;48.106;11.546;2022-08-11T18:56:57;3.22;;;2.30;;
27199;SDS011;14714;48.106;11.546;2022-08-11T18:59:46;4.68;;;2.05;;
27199;SDS011;14714;48.106;11.546;2022-08-11T19:02:34;4.60;;;2.38;;
27199;SDS011;14714;48.106;11.546;2022-08-11T19:05:21;2.72;;;2.15;;
27199;SDS011;14714;48.106;11.546;2022-08-11T19:08:29;2.47;;;2.15;;
27199;SDS011;14714;48.106;11.546;2022-08-11T19:11:20;4.93;;;2.20;;
27199;SDS011;14714;48.106;11.546;2022-08-11T19:14:09;4.30;;;2.10;;
27199;SDS011;14714;48.106;11.546;2022-08-11T19:16:56;2.75;;;2.00;;
27199;SDS011;14714;48.106;11.546;2022-08-11T19:20:05;3.90;;;2.13;;
27199;SDS011;14714;48.106;11.546;2022-08-11T19:22:52;3.13;;;2.00;;
27199;SDS011;14714;48.106;11.546;2022-08-11T19:25:39;2.17;;;1.98;;
27199;SDS011;14714;48.106;11.546;2022-08-11T19:28:28;2.85;;;2.05;;
27199;SDS011;14714;48.106;11.546;2022-08-11T19:31:14;3.30;;;2.15;;
27199;SDS011;14714;48.106;11.546;2022-08-11T19:34:00;3.38;;;2.15;;
27199;SDS011;14714;48.106;11.546;2022-08-11T19:36:48;2.85;;;2.28;;
27199;SDS011;14714;48.106;11.546;2022-08-11T19:39:35;4.18;;;2.28;;
27199;SDS011;14714;48.106;11.546;2022-08-11T19:42:21;3.30;;;2.15;;
27199;SDS011;14714;48.106;11.546;2022-08-11T19:45:07;3.03;;;2.42;;
27199;SDS011;14714;48.106;11.546;2022-08-11T19:47:53;4.72;;;2.40;;
27199;SDS011;14714;48.106;11.546;2022-08-11T19:50:57;3.60;;;2.33;;
27199;SDS011;14714;48.106;11.546;2022-08-11T19:53:44;5.72;;;2.40;;
27199;SDS011;14714;48.106;11.546;2022-08-11T19:56:32;2.63;;;2.30;;
27199;SDS011;14714;48.106;11.546;2022-08-11T19:59:20;2.90;;;2.10;;
27199;SDS011;14714;48.106;11.546;2022-08-11T20:02:07;3.78;;;2.50;;